KSBM/SBM METAR and TAF weather

Enter ICAO airport designator
Station Type Date Time Source
KSBM METAR 2019/06/19 06:53 UTC NOAA

KSBM 190653Z AUTO 26003KT 9SM OVC055 17/16 A2984 RMK AO2 SLP104 T01720156


Station Type Date Time Source
KSBM Decoded METAR 2019/06/19 06:53 UTC NOAA

SHEBOYGAN CO MEMORIAL AIRPORT , WI, United States (KSBM) 43-47N 87-51W 232M
Jun 19, 2019 - 02:53 AM EDT / 2019.06.19 0653 UTC
Wind: from the W (260 degrees) at 3 MPH (3 KT):0
Visibility: 9 mile(s):0
Sky conditions: overcast
Temperature: 63.0 F (17.2 C)
Dew Point: 60.1 F (15.6 C)
Relative Humidity: 90%
Pressure (altimeter): 29.84 in. Hg (1010 hPa)
ob: KSBM 190653Z AUTO 26003KT 9SM OVC055 17/16 A2984 RMK AO2 SLP104 T01720156
cycle: 7

Station Type Date Time Source
KSBM TAF UTC NOAA

Error!

Example: see airport list